Time;durP1;ratioP1;P1;durP2;ratioP2;P2;SDS_P1;SDS_P2;PMS_P1;PMS_P2;Temp;Humidity;BMP_temperature;BMP_pressure;BME280_temperature;BME280_humidity;BME280_pressure;Samples;Min_cycle;Max_cycle;Signal;HPM_P1;HPM_P2
2023/01/28 00:01:49;;;;;;;4.45;3.53;;;6.10;95.50;;;;;;5047439;28;20035;-80
2023/01/28 00:04:15;;;;;;;3.60;3.30;;;6.10;95.50;;;;;;5029782;28;20033;-80
2023/01/28 00:06:41;;;;;;;;;;;6.20;95.50;;;;;;5046824;28;20029;-80
2023/01/28 00:09:07;;;;;;;3.50;3.20;;;6.20;95.40;;;;;;5046323;28;19905;-80
2023/01/28 00:11:32;;;;;;;4.25;3.95;;;6.20;95.40;;;;;;5046355;28;20068;-80
2023/01/28 00:13:59;;;;;;;4.13;3.83;;;6.10;95.30;;;;;;5029834;28;20063;-80
2023/01/28 00:16:29;;;;;;;3.95;3.65;;;6.10;95.30;;;;;;5047396;28;20044;-80
2023/01/28 00:18:54;;;;;;;4.40;4.10;;;6.00;95.30;;;;;;5046157;28;20040;-80
2023/01/28 00:21:20;;;;;;;4.22;3.92;;;5.90;95.30;;;;;;5046187;28;20037;-80
2023/01/28 00:23:54;;;;;;;4.20;3.90;;;5.80;95.30;;;;;;5046115;28;20393;-80
2023/01/28 00:26:21;;;;;;;4.20;3.90;;;5.80;95.40;;;;;;5046463;28;20525;-80
2023/01/28 00:28:47;;;;;;;4.32;4.03;;;5.80;95.70;;;;;;5048288;28;20028;-80
2023/01/28 00:31:18;;;;;;;5.00;4.70;;;5.80;95.50;;;;;;5031569;28;20481;-80
2023/01/28 00:33:46;;;;;;;4.75;4.45;;;5.80;95.50;;;;;;5045859;28;20036;-80
2023/01/28 00:36:13;;;;;;;3.85;3.55;;;5.90;95.50;;;;;;5047255;28;20547;-80
2023/01/28 00:38:41;;;;;;;4.47;4.18;;;6.00;95.60;;;;;;5029469;28;20060;-80
2023/01/28 00:41:16;;;;;;;4.13;3.83;;;6.10;95.60;;;;;;5047346;28;20021;-80
2023/01/28 00:43:43;;;;;;;3.55;3.25;;;6.10;95.50;;;;;;5046106;28;20025;-80
2023/01/28 00:46:10;;;;;;;4.40;4.10;;;6.20;95.60;;;;;;5047612;28;20056;-79
2023/01/28 00:48:38;;;;;;;3.70;3.40;;;6.20;95.50;;;;;;5050071;28;20080;-80
2023/01/28 00:51:04;;;;;;;3.70;3.40;;;6.20;95.50;;;;;;5049826;28;20029;-80
2023/01/28 00:53:30;;;;;;;3.75;3.45;;;6.20;95.50;;;;;;5051094;28;20047;-80
2023/01/28 00:55:56;;;;;;;4.35;4.05;;;6.30;95.50;;;;;;5049589;28;20552;-80
2023/01/28 00:58:25;;;;;;;3.40;3.10;;;6.30;95.50;;;;;;5049682;28;20029;-80
2023/01/28 01:00:51;;;;;;;3.40;3.10;;;6.30;95.50;;;;;;5049915;28;20051;-81
2023/01/28 01:03:18;;;;;;;3.60;3.30;;;6.30;95.50;;;;;;5049562;28;20021;-80
2023/01/28 01:05:44;;;;;;;3.67;3.38;;;6.30;95.50;;;;;;5049506;28;20448;-80
2023/01/28 01:08:09;;;;;;;;;;;6.40;95.50;;;;;;5051247;28;20496;-80
2023/01/28 01:10:37;;;;;;;3.65;3.35;;;6.30;95.40;;;;;;5050617;28;19905;-80
2023/01/28 01:13:04;;;;;;;3.80;3.50;;;6.30;95.40;;;;;;5050753;28;20049;-80
2023/01/28 01:15:30;;;;;;;3.75;3.45;;;6.30;95.50;;;;;;5049468;28;20028;-80
2023/01/28 01:17:57;;;;;;;3.45;3.15;;;6.30;95.50;;;;;;5049354;28;20025;-80
2023/01/28 01:20:27;;;;;;;3.50;3.20;;;6.40;95.50;;;;;;5050531;28;20036;-80
2023/01/28 01:22:53;;;;;;;3.53;3.22;;;6.40;95.50;;;;;;5050489;28;20024;-80
2023/01/28 01:25:19;;;;;;;;;;;6.50;95.60;;;;;;5049486;28;20036;-80
2023/01/28 01:27:48;;;;;;;3.15;2.95;;;6.50;95.50;;;;;;5049038;28;20007;-80
2023/01/28 01:30:14;;;;;;;2.80;2.60;;;6.60;95.50;;;;;;5050392;28;20032;-80
2023/01/28 01:32:40;;;;;;;3.03;2.83;;;6.50;95.50;;;;;;5049153;28;20384;-80
2023/01/28 01:35:08;;;;;;;2.97;2.78;;;6.60;95.50;;;;;;5049005;28;20128;-80
2023/01/28 01:37:35;;;;;;;3.30;3.03;;;6.60;95.50;;;;;;5050245;28;20029;-80
2023/01/28 01:40:03;;;;;;;2.80;2.60;;;6.60;95.50;;;;;;5032488;28;20029;-80
2023/01/28 01:42:31;;;;;;;2.88;2.67;;;6.60;95.50;;;;;;5048935;28;20273;-80
2023/01/28 01:45:02;;;;;;;3.03;2.83;;;6.60;95.50;;;;;;5048794;28;20048;-80
2023/01/28 01:47:45;;;;;;;3.00;2.80;;;6.60;95.50;;;;;;5048799;28;20025;-80
2023/01/28 01:50:34;;;;;;;3.63;3.33;;;6.60;95.50;;;;;;5050026;28;20104;-80
2023/01/28 01:53:10;;;;;;;3.50;3.20;;;6.60;95.50;;;;;;5048701;28;20028;-80
2023/01/28 01:55:40;;;;;;;4.43;4.13;;;6.60;95.50;;;;;;5050422;28;20032;-79
2023/01/28 01:58:10;;;;;;;4.60;4.30;;;6.60;95.50;;;;;;5049005;28;20057;-80
2023/01/28 02:00:36;;;;;;;5.43;5.13;;;6.60;95.50;;;;;;5055692;28;20024;-80
2023/01/28 02:03:02;;;;;;;5.65;5.35;;;6.60;95.50;;;;;;5050186;28;20036;-80
2023/01/28 02:05:28;;;;;;;6.78;6.38;;;6.60;95.60;;;;;;5032199;28;20130;-80
2023/01/28 02:10:41;;;;;;;9.00;8.60;;;6.60;95.60;;;;;;5050085;28;20059;-80
2023/01/28 02:13:07;;;;;;;11.07;10.57;;;6.60;95.60;;;;;;5048496;28;20107;-80
2023/01/28 02:15:33;;;;;;;12.40;11.80;;;6.70;95.60;;;;;;5031687;28;20371;-80
2023/01/28 02:17:59;;;;;;;16.73;16.02;;;6.60;95.50;;;;;;5031604;28;20446;-80
2023/01/28 02:20:56;;;;;;;21.92;21.02;;;6.70;95.50;;;;;;5048130;28;20128;-79
2023/01/28 02:24:00;;;;;;;24.02;23.13;;;6.60;95.50;;;;;;5039339;28;20036;-79
2023/01/28 02:26:48;;;;;;;27.10;26.10;;;6.60;95.50;;;;;;5049394;28;20017;-80
2023/01/28 02:29:30;;;;;;;30.50;29.30;;;6.50;95.40;;;;;;5047817;28;20056;-80
2023/01/28 02:32:21;;;;;;;30.20;29.10;;;6.50;95.50;;;;;;5049351;28;20114;-80
2023/01/28 02:34:50;;;;;;;31.60;30.40;;;6.40;95.50;;;;;;5049508;28;20032;-80
2023/01/28 02:37:33;;;;;;;34.42;33.13;;;6.40;95.50;;;;;;5049046;28;20025;-81
2023/01/28 02:40:05;;;;;;;32.13;30.92;;;6.40;95.50;;;;;;5049222;28;20021;-81
2023/01/28 02:42:33;;;;;;;31.67;30.48;;;6.40;95.50;;;;;;5049128;28;20024;-81
2023/01/28 02:44:59;;;;;;;33.15;31.95;;;6.50;95.50;;;;;;5031344;28;20025;-82
2023/01/28 02:50:13;;;;;;;33.83;32.53;;;6.50;95.50;;;;;;5049319;28;20520;-81
2023/01/28 02:56:28;;;;;;;38.17;36.78;;;6.50;95.50;;;;;;5048669;28;20067;-81
2023/01/28 03:02:19;;;;;;;51.75;49.85;;;6.40;95.50;;;;;;5048693;28;20059;-81
2023/01/28 03:04:54;;;;;;;56.25;54.15;;;6.40;95.50;;;;;;5047307;28;20033;-79
2023/01/28 03:07:25;;;;;;;61.15;58.95;;;6.30;95.40;;;;;;5048380;28;20058;-81
2023/01/28 03:09:52;;;;;;;60.90;58.67;;;6.30;95.50;;;;;;5048429;28;20028;-81
2023/01/28 03:38:17;;;;;;;83.70;80.60;;;6.10;95.50;;;;;;5047038;28;20047;-81
2023/01/28 03:41:01;;;;;;;86.03;82.88;;;6.20;95.60;;;;;;5046885;28;20407;-81
2023/01/28 03:43:27;;;;;;;82.18;79.18;;;6.20;95.50;;;;;;5047842;28;20025;-81
2023/01/28 03:45:54;;;;;;;81.50;78.50;;;6.20;95.50;;;;;;5030064;28;20031;-81
2023/01/28 03:48:23;;;;;;;84.47;81.38;;;6.20;95.60;;;;;;5046546;28;20389;-81
2023/01/28 03:50:49;;;;;;;79.82;76.93;;;6.20;95.80;;;;;;5046502;28;20055;-81
2023/01/28 03:53:16;;;;;;;80.28;77.35;;;6.30;95.60;;;;;;5047664;28;20061;-82
2023/01/28 03:55:42;;;;;;;;;;;6.30;95.60;;;;;;5030370;28;20307;-80
2023/01/28 03:58:08;;;;;;;78.40;75.53;;;6.40;95.60;;;;;;5046548;28;20364;-81
2023/01/28 04:00:36;;;;;;;79.97;77.00;;;6.40;95.50;;;;;;5046569;28;20037;-76
2023/01/28 04:03:14;;;;;;;80.78;77.78;;;6.40;95.50;;;;;;5047897;28;20022;-76
2023/01/28 04:05:44;;;;;;;79.45;76.50;;;6.40;95.50;;;;;;5047868;28;20074;-76
2023/01/28 04:08:13;;;;;;;80.25;77.25;;;6.40;95.60;;;;;;5046848;28;20032;-76
2023/01/28 04:10:39;;;;;;;80.60;77.60;;;6.50;95.60;;;;;;5030508;28;20032;-76
2023/01/28 04:13:06;;;;;;;78.97;76.07;;;6.50;95.60;;;;;;5047833;28;20040;-76
2023/01/28 04:15:32;;;;;;;78.60;75.70;;;6.50;95.60;;;;;;5029917;28;20124;-77
2023/01/28 04:17:59;;;;;;;;;;;6.50;95.60;;;;;;5048689;28;20369;-76
2023/01/28 04:20:25;;;;;;;80.63;77.63;;;6.50;95.50;;;;;;5047175;28;19915;-76
2023/01/28 04:22:51;;;;;;;80.75;77.75;;;6.50;95.50;;;;;;5029921;28;20389;-76
2023/01/28 04:25:16;;;;;;;84.45;81.35;;;6.50;95.50;;;;;;5013701;28;20102;-76
2023/01/28 04:27:42;;;;;;;84.55;81.45;;;6.40;95.50;;;;;;5029873;28;20037;-76
2023/01/28 04:30:08;;;;;;;85.18;82.05;;;6.40;95.50;;;;;;5046385;28;20497;-76
2023/01/28 04:32:34;;;;;;;84.18;81.07;;;6.30;95.50;;;;;;5046521;28;20124;-76
2023/01/28 04:35:00;;;;;;;87.20;84.00;;;6.30;95.50;;;;;;5046324;28;20108;-76
2023/01/28 04:37:25;;;;;;;84.60;81.50;;;6.30;95.60;;;;;;5030019;28;20041;-76
2023/01/28 04:39:51;;;;;;;83.43;80.32;;;6.30;95.50;;;;;;5046089;28;20025;-76
2023/01/28 04:42:17;;;;;;;83.80;80.70;;;6.30;95.60;;;;;;5029906;28;20381;-76
2023/01/28 04:44:42;;;;;;;84.82;81.68;;;6.30;95.60;;;;;;5029880;28;20129;-76
2023/01/28 04:47:08;;;;;;;80.85;77.85;;;6.30;95.60;;;;;;5046004;28;20396;-76
2023/01/28 04:49:34;;;;;;;83.10;80.00;;;6.30;95.60;;;;;;5046462;28;20036;-76
2023/01/28 04:51:59;;;;;;;82.72;79.63;;;6.40;95.60;;;;;;5047667;28;20048;-76
2023/01/28 04:54:25;;;;;;;84.18;81.07;;;6.40;95.60;;;;;;5029668;28;20035;-76
2023/01/28 04:56:51;;;;;;;82.95;79.88;;;6.40;95.60;;;;;;5029307;28;20136;-76
2023/01/28 04:59:17;;;;;;;82.30;79.25;;;6.40;95.60;;;;;;5013263;28;20477;-76
2023/01/28 05:01:42;;;;;;;84.03;80.93;;;6.40;95.60;;;;;;5029770;28;20034;-76
2023/01/28 05:04:08;;;;;;;82.97;79.88;;;6.50;95.60;;;;;;5046332;28;20033;-77
2023/01/28 05:06:34;;;;;;;84.88;81.68;;;6.50;95.60;;;;;;5029785;28;20041;-76
2023/01/28 05:09:00;;;;;;;86.43;83.22;;;6.50;95.60;;;;;;5046386;28;20039;-77
2023/01/28 05:11:26;;;;;;;86.72;83.53;;;6.50;95.60;;;;;;5047204;28;20029;-76
2023/01/28 05:13:53;;;;;;;88.72;85.43;;;6.50;95.60;;;;;;5046264;28;20033;-76
2023/01/28 05:16:19;;;;;;;90.13;86.72;;;6.50;95.60;;;;;;5047113;28;20021;-76
2023/01/28 05:18:46;;;;;;;92.88;89.38;;;6.50;95.60;;;;;;5029423;28;20170;-76
2023/01/28 05:21:12;;;;;;;91.03;87.63;;;6.50;95.60;;;;;;5029823;28;20063;-76
2023/01/28 05:23:38;;;;;;;92.03;88.63;;;6.50;95.60;;;;;;5047556;28;20074;-77
2023/01/28 05:26:04;;;;;;;93.07;89.63;;;6.50;95.60;;;;;;5013135;28;20056;-76
2023/01/28 05:28:30;;;;;;;92.45;89.05;;;6.50;95.60;;;;;;5012879;28;20037;-76
2023/01/28 05:30:56;;;;;;;92.00;88.60;;;6.50;95.60;;;;;;5045889;28;20120;-76
2023/01/28 05:33:21;;;;;;;91.20;87.80;;;6.50;95.60;;;;;;5048943;28;20075;-76
2023/01/28 05:35:48;;;;;;;88.60;85.30;;;6.50;95.60;;;;;;5032940;28;20033;-76
2023/01/28 05:38:14;;;;;;;95.50;91.90;;;6.60;95.70;;;;;;5033116;28;20025;-76
2023/01/28 05:40:40;;;;;;;97.93;94.28;;;6.60;95.70;;;;;;5049381;28;20071;-76
2023/01/28 05:43:05;;;;;;;91.93;88.53;;;6.60;95.60;;;;;;5016297;28;20532;-76
2023/01/28 05:45:31;;;;;;;91.53;88.10;;;6.60;95.70;;;;;;5032480;28;20025;-75
2023/01/28 05:47:57;;;;;;;93.70;90.20;;;6.60;95.70;;;;;;5032508;28;20040;-76
2023/01/28 05:50:22;;;;;;;89.40;86.10;;;6.60;95.70;;;;;;5049050;28;20385;-76
2023/01/28 05:52:48;;;;;;;96.15;92.55;;;6.60;95.70;;;;;;5016217;28;20052;-77
2023/01/28 05:55:14;;;;;;;97.55;93.88;;;6.60;95.70;;;;;;5032336;28;20111;-76
2023/01/28 05:57:40;;;;;;;96.20;92.60;;;6.70;95.70;;;;;;5050173;28;20041;-76
2023/01/28 06:00:06;;;;;;;95.55;91.95;;;6.60;95.60;;;;;;5032451;28;20029;-76
2023/01/28 06:02:32;;;;;;;96.47;92.88;;;6.60;95.70;;;;;;5032171;28;20025;-75
2023/01/28 06:04:58;;;;;;;94.25;90.65;;;6.60;95.70;;;;;;5048801;28;20025;-76
2023/01/28 06:07:24;;;;;;;98.45;94.75;;;6.60;95.70;;;;;;5050255;28;20048;-76
2023/01/28 06:09:49;;;;;;;98.85;95.15;;;6.60;95.70;;;;;;5049930;28;20029;-76
2023/01/28 06:12:15;;;;;;;98.03;94.32;;;6.70;95.70;;;;;;5015785;28;20392;-75
2023/01/28 06:14:41;;;;;;;92.25;88.75;;;6.70;95.70;;;;;;5048759;28;20452;-75
2023/01/28 06:17:07;;;;;;;93.97;90.43;;;6.70;95.70;;;;;;5031600;28;20037;-75
2023/01/28 06:19:33;;;;;;;91.70;88.25;;;6.70;95.70;;;;;;5049565;28;20036;-76
2023/01/28 06:21:58;;;;;;;95.90;92.30;;;6.70;95.70;;;;;;5015472;28;20028;-75
2023/01/28 06:24:24;;;;;;;94.30;90.80;;;6.70;95.70;;;;;;5031612;28;20033;-76
2023/01/28 06:26:50;;;;;;;96.20;92.60;;;6.70;95.70;;;;;;5031997;28;20029;-76
2023/01/28 06:29:16;;;;;;;98.20;94.47;;;6.70;95.70;;;;;;5048765;28;20071;-76
2023/01/28 06:31:41;;;;;;;96.88;93.22;;;6.70;95.70;;;;;;5048276;28;20104;-75
2023/01/28 06:34:08;;;;;;;98.15;94.43;;;6.80;95.70;;;;;;5049481;28;20384;-76
2023/01/28 06:36:36;;;;;;;97.80;94.10;;;6.80;95.70;;;;;;5049590;28;20033;-76
2023/01/28 06:39:03;;;;;;;100.35;96.55;;;6.80;95.70;;;;;;5048311;28;20026;-76
2023/01/28 06:41:29;;;;;;;106.20;102.10;;;6.80;95.70;;;;;;5048108;28;20021;-76
2023/01/28 06:43:55;;;;;;;107.75;103.60;;;6.80;95.70;;;;;;5047950;28;20376;-76
2023/01/28 06:46:20;;;;;;;107.85;103.65;;;6.80;95.70;;;;;;5048411;28;20029;-76
2023/01/28 06:48:46;;;;;;;111.57;107.28;;;6.70;95.70;;;;;;5048061;28;20071;-76
2023/01/28 06:51:12;;;;;;;115.75;111.25;;;6.70;95.70;;;;;;5047944;28;20064;-76
2023/01/28 06:53:38;;;;;;;113.90;109.50;;;6.70;95.70;;;;;;5015025;28;20056;-76
2023/01/28 06:56:04;;;;;;;112.97;108.57;;;6.70;95.70;;;;;;5047693;28;20049;-76
2023/01/28 06:58:30;;;;;;;116.00;111.45;;;6.70;95.70;;;;;;5031313;28;20033;-76
2023/01/28 07:00:55;;;;;;;113.80;109.32;;;6.60;95.70;;;;;;5048880;28;20052;-77
2023/01/28 07:03:21;;;;;;;118.20;113.50;;;6.60;95.70;;;;;;5031158;28;20029;-75
2023/01/28 07:05:47;;;;;;;116.63;112.03;;;6.60;95.70;;;;;;5048894;28;20048;-76
2023/01/28 07:08:13;;;;;;;118.60;113.93;;;6.60;95.70;;;;;;5049045;28;20044;-76
2023/01/28 07:10:38;;;;;;;120.95;116.15;;;6.60;95.70;;;;;;5031007;28;20033;-76
2023/01/28 07:13:04;;;;;;;121.63;116.82;;;6.60;95.70;;;;;;5048774;28;20481;-76
2023/01/28 07:15:30;;;;;;;123.68;118.78;;;6.60;95.70;;;;;;5030638;28;20032;-75
2023/01/28 07:17:55;;;;;;;120.40;115.70;;;6.70;95.80;;;;;;5047299;28;20039;-75
2023/01/28 07:20:21;;;;;;;121.05;116.25;;;6.70;95.80;;;;;;5048618;28;20021;-75
2023/01/28 07:22:47;;;;;;;126.43;121.43;;;6.80;95.80;;;;;;5047413;28;20033;-76
2023/01/28 07:25:14;;;;;;;120.53;115.75;;;6.80;95.80;;;;;;5047208;28;20386;-76
2023/01/28 07:27:49;;;;;;;123.10;118.28;;;6.80;95.70;;;;;;5047643;28;20033;-76
2023/01/28 07:30:15;;;;;;;121.25;116.45;;;6.80;95.80;;;;;;5047045;28;20116;-76
2023/01/28 07:32:41;;;;;;;123.05;118.15;;;6.80;95.70;;;;;;5046971;28;20282;-76
2023/01/28 07:35:07;;;;;;;120.70;115.90;;;6.80;95.70;;;;;;5048361;28;20033;-76
2023/01/28 07:37:33;;;;;;;123.35;118.45;;;6.80;95.70;;;;;;5046998;28;20040;-76
2023/01/28 07:39:58;;;;;;;120.70;115.85;;;6.80;95.70;;;;;;5048324;28;20090;-76
2023/01/28 07:42:24;;;;;;;118.88;114.15;;;6.80;95.70;;;;;;5047159;28;20064;-75
2023/01/28 07:44:50;;;;;;;122.40;117.50;;;6.80;95.80;;;;;;5030434;28;20029;-75
2023/01/28 07:47:15;;;;;;;121.38;116.50;;;6.80;95.70;;;;;;5047004;28;20041;-76
2023/01/28 07:49:41;;;;;;;120.38;115.57;;;6.90;95.80;;;;;;5047023;28;20041;-76
2023/01/28 07:52:08;;;;;;;118.78;114.00;;;6.80;95.70;;;;;;5048313;28;20038;-75
2023/01/28 07:54:33;;;;;;;;;;;6.80;95.70;;;;;;5030423;28;20074;-76
2023/01/28 07:56:59;;;;;;;116.63;111.93;;;6.80;95.70;;;;;;5047547;28;19917;-76
2023/01/28 07:59:25;;;;;;;117.47;112.78;;;6.80;95.70;;;;;;5013565;28;20029;-76
2023/01/28 08:01:52;;;;;;;119.65;114.85;;;6.80;95.80;;;;;;5046823;28;20025;-76
2023/01/28 08:04:18;;;;;;;119.65;114.85;;;6.80;95.80;;;;;;5047993;28;20021;-75
2023/01/28 08:06:44;;;;;;;118.95;114.15;;;6.80;95.80;;;;;;5048016;28;20049;-75
2023/01/28 08:09:10;;;;;;;116.65;111.95;;;6.80;95.80;;;;;;5048086;28;20111;-75
2023/01/28 08:11:39;;;;;;;115.38;110.78;;;6.80;95.80;;;;;;5047805;28;20110;-76
2023/01/28 08:14:05;;;;;;;117.82;113.13;;;6.80;95.80;;;;;;5046735;28;20037;-75
2023/01/28 08:16:30;;;;;;;119.93;115.13;;;6.80;95.80;;;;;;5030226;28;20033;-76
2023/01/28 08:18:56;;;;;;;117.32;112.63;;;6.80;95.80;;;;;;5047943;28;20120;-75
2023/01/28 08:21:22;;;;;;;113.30;108.68;;;6.90;95.90;;;;;;5046820;28;20025;-75
2023/01/28 08:23:48;;;;;;;117.20;112.40;;;6.90;95.80;;;;;;5029500;28;20370;-76
2023/01/28 08:26:14;;;;;;;119.43;114.53;;;6.90;95.80;;;;;;5048063;28;20036;-76
2023/01/28 08:28:39;;;;;;;121.03;116.13;;;6.90;95.80;;;;;;5047446;28;20432;-75
2023/01/28 08:31:05;;;;;;;119.25;114.43;;;6.90;95.80;;;;;;5046410;28;20103;-75
2023/01/28 08:33:31;;;;;;;117.20;112.40;;;7.00;95.90;;;;;;5047772;28;20117;-75
2023/01/28 08:35:57;;;;;;;118.40;113.63;;;7.00;96.10;;;;;;5046242;28;20029;-76
2023/01/28 08:38:22;;;;;;;119.32;114.53;;;7.00;95.90;;;;;;5046241;28;20120;-75
2023/01/28 08:40:54;;;;;;;115.18;110.38;;;7.10;95.90;;;;;;5029544;28;20029;-76
2023/01/28 08:43:20;;;;;;;114.03;109.28;;;7.10;95.90;;;;;;5046364;28;20060;-76
2023/01/28 08:45:46;;;;;;;119.40;114.50;;;7.10;95.90;;;;;;5047431;28;20025;-76
2023/01/28 08:48:15;;;;;;;112.97;108.28;;;7.10;95.90;;;;;;5046051;28;20029;-75
2023/01/28 08:50:41;;;;;;;112.20;107.57;;;7.10;95.90;;;;;;5045729;28;20029;-76
2023/01/28 08:53:13;;;;;;;114.70;109.90;;;7.20;95.90;;;;;;5029528;28;20131;-75
2023/01/28 08:55:39;;;;;;;114.85;110.05;;;7.20;95.90;;;;;;5045855;28;20029;-75
2023/01/28 08:58:06;;;;;;;116.10;111.30;;;7.30;95.90;;;;;;5046844;28;20300;-75
2023/01/28 09:00:33;;;;;;;117.07;112.18;;;7.30;96.20;;;;;;5046977;28;20021;-75
2023/01/28 09:02:59;;;;;;;113.38;108.65;;;7.40;96.00;;;;;;5047098;28;20465;-75
2023/01/28 09:05:24;;;;;;;115.75;110.95;;;7.50;96.00;;;;;;5012659;28;20037;-76
2023/01/28 09:07:50;;;;;;;115.35;110.53;;;7.50;96.00;;;;;;5049627;28;20033;-76
2023/01/28 09:10:19;;;;;;;116.05;111.25;;;7.60;95.90;;;;;;5032605;28;20029;-76
2023/01/28 09:12:45;;;;;;;117.20;112.30;;;7.60;95.90;;;;;;5049407;28;20037;-75
2023/01/28 09:15:11;;;;;;;115.18;110.38;;;7.60;95.90;;;;;;5049470;28;20114;-76
2023/01/28 09:17:37;;;;;;;;;;;7.60;95.90;;;;;;5050200;28;20493;-76
2023/01/28 09:20:03;;;;;;;123.85;118.72;;;7.70;95.90;;;;;;5050873;28;19915;-77
2023/01/28 09:22:29;;;;;;;123.65;118.47;;;7.70;95.90;;;;;;5050541;28;20013;-77
2023/01/28 09:24:55;;;;;;;125.40;120.15;;;7.70;95.90;;;;;;5048685;28;20070;-76
2023/01/28 09:27:20;;;;;;;127.95;122.65;;;7.70;95.90;;;;;;5049125;28;20122;-76
2023/01/28 09:29:46;;;;;;;128.48;123.07;;;7.70;95.90;;;;;;5048680;28;20044;-75
2023/01/28 09:32:12;;;;;;;126.70;121.40;;;7.70;96.00;;;;;;5032303;28;20556;-76
2023/01/28 09:34:38;;;;;;;124.20;119.05;;;7.70;96.00;;;;;;5048684;28;20029;-76
2023/01/28 09:37:03;;;;;;;123.95;118.78;;;7.70;96.00;;;;;;5049239;28;20041;-76
2023/01/28 09:39:29;;;;;;;126.85;121.55;;;7.80;96.00;;;;;;5015920;28;20063;-77
2023/01/28 09:42:20;;;;;;;126.35;121.15;;;7.80;96.00;;;;;;5032327;28;20030;-76
2023/01/28 09:45:01;;;;;;;122.68;117.57;;;7.90;96.20;;;;;;5049769;28;20032;-76
2023/01/28 09:47:51;;;;;;;122.35;117.35;;;7.90;96.00;;;;;;5050664;28;20132;-78
2023/01/28 09:50:24;;;;;;;126.60;121.40;;;7.90;96.00;;;;;;5047850;28;20037;-78
2023/01/28 09:52:54;;;;;;;126.28;121.07;;;7.90;96.00;;;;;;5051948;28;20121;-78
2023/01/28 09:55:31;;;;;;;123.13;118.03;;;8.00;96.00;;;;;;5050654;28;20025;-78
2023/01/28 09:57:57;;;;;;;128.45;123.25;;;8.00;96.00;;;;;;5051899;28;20060;-78
2023/01/28 10:00:33;;;;;;;123.20;118.10;;;8.00;96.00;;;;;;5051824;28;20446;-78
2023/01/28 10:03:36;;;;;;;123.82;118.72;;;8.10;96.20;;;;;;5052170;28;20033;-77
2023/01/28 10:06:41;;;;;;;123.25;118.15;;;8.10;96.00;;;;;;5050201;28;20112;-76
2023/01/28 10:09:44;;;;;;;128.98;123.68;;;8.10;96.00;;;;;;5042951;28;20036;-78
2023/01/28 10:12:42;;;;;;;122.57;117.47;;;8.10;96.00;;;;;;5049944;28;20017;-77
2023/01/28 10:15:25;;;;;;;123.68;118.53;;;8.10;96.00;;;;;;5051216;28;20025;-77
2023/01/28 10:17:55;;;;;;;123.20;118.10;;;8.00;95.90;;;;;;5049574;28;20036;-78
2023/01/28 10:20:36;;;;;;;120.82;115.80;;;8.00;96.00;;;;;;5055591;28;20048;-80
2023/01/28 10:23:14;;;;;;;120.57;115.47;;;8.00;96.00;;;;;;5054958;28;20073;-80
2023/01/28 10:25:43;;;;;;;120.78;115.80;;;8.10;96.10;;;;;;5059698;28;20045;-82
2023/01/28 10:28:27;;;;;;;117.93;112.93;;;8.20;96.10;;;;;;5060735;28;20029;-81
2023/01/28 10:30:53;;;;;;;116.53;111.72;;;8.20;96.20;;;;;;5052125;28;20055;-81
2023/01/28 10:33:38;;;;;;;119.22;114.32;;;8.30;96.20;;;;;;5050458;28;20061;-83
2023/01/28 10:36:06;;;;;;;117.88;113.03;;;8.40;96.10;;;;;;5032127;28;20500;-82
2023/01/28 10:38:32;;;;;;;115.03;110.22;;;8.50;96.10;;;;;;5047066;28;20025;-82
2023/01/28 10:41:01;;;;;;;112.97;108.28;;;8.60;96.20;;;;;;5050782;28;20039;-81
2023/01/28 10:43:32;;;;;;;121.32;116.30;;;8.60;96.10;;;;;;5050694;28;20029;-82
2023/01/28 10:46:04;;;;;;;117.28;112.38;;;8.70;96.10;;;;;;5054498;28;20021;-82
2023/01/28 10:48:34;;;;;;;119.05;114.10;;;8.70;96.10;;;;;;5052600;28;20051;-81
2023/01/28 10:51:05;;;;;;;116.15;111.35;;;8.70;96.10;;;;;;5035245;28;20474;-82
2023/01/28 10:53:38;;;;;;;114.70;110.00;;;8.80;96.10;;;;;;5034092;28;20097;-81
2023/01/28 10:56:15;;;;;;;112.82;108.15;;;8.90;96.10;;;;;;5047853;28;20492;-77
2023/01/28 10:59:10;;;;;;;110.55;105.97;;;8.90;96.10;;;;;;5049422;28;20029;-80
2023/01/28 11:01:42;;;;;;;113.10;108.47;;;8.90;96.10;;;;;;5050019;28;20346;-77
2023/01/28 11:04:25;;;;;;;114.72;110.03;;;9.00;96.10;;;;;;5049928;28;20534;-78
2023/01/28 11:06:57;;;;;;;112.15;107.55;;;9.00;96.10;;;;;;5051195;28;20055;-76
2023/01/28 11:09:28;;;;;;;106.88;102.47;;;9.10;96.10;;;;;;5052173;28;20063;-78
2023/01/28 11:11:54;;;;;;;108.43;104.03;;;9.20;96.20;;;;;;5048781;28;20028;-78
2023/01/28 11:14:22;;;;;;;109.40;104.88;;;9.30;96.20;;;;;;5048310;28;20724;-78
2023/01/28 11:16:49;;;;;;;106.90;102.50;;;9.30;96.10;;;;;;5049810;28;20025;-78
2023/01/28 11:19:18;;;;;;;104.40;100.10;;;9.30;96.10;;;;;;5032465;28;20029;-77
2023/01/28 11:21:50;;;;;;;108.47;103.97;;;9.30;96.20;;;;;;5048688;28;20021;-77
2023/01/28 11:24:21;;;;;;;113.90;109.20;;;9.40;96.20;;;;;;5049746;28;20870;-77
2023/01/28 11:26:49;;;;;;;109.03;104.53;;;9.50;96.20;;;;;;5049722;28;20021;-77
2023/01/28 11:29:25;;;;;;;109.57;105.07;;;9.50;96.20;;;;;;5049407;28;20087;-76
2023/01/28 11:31:51;;;;;;;109.90;105.40;;;9.50;96.10;;;;;;5049637;28;20029;-77
2023/01/28 11:34:19;;;;;;;110.88;106.35;;;9.50;96.10;;;;;;5050143;28;20266;-81
2023/01/28 11:36:53;;;;;;;107.40;102.97;;;9.50;96.10;;;;;;5049244;28;20037;-77
2023/01/28 11:39:27;;;;;;;111.30;106.70;;;9.50;96.20;;;;;;5047994;28;20072;-77
2023/01/28 11:41:53;;;;;;;107.82;103.43;;;9.50;96.30;;;;;;5050159;28;20377;-76
2023/01/28 11:44:26;;;;;;;;;;;9.60;96.30;;;;;;5049542;28;20025;-76
2023/01/28 11:47:16;;;;;;;105.05;100.75;;;9.60;96.30;;;;;;5049691;28;19904;-78
2023/01/28 11:49:54;;;;;;;104.72;100.43;;;9.70;96.30;;;;;;5047656;28;20111;-76
2023/01/28 11:52:22;;;;;;;107.05;102.65;;;9.70;96.20;;;;;;5049404;28;20032;-78
2023/01/28 11:55:00;;;;;;;107.30;102.90;;;9.70;96.30;;;;;;5048736;28;20099;-77
2023/01/28 11:57:33;;;;;;;111.18;106.57;;;9.70;96.20;;;;;;5049374;28;20052;-75
2023/01/28 12:00:10;;;;;;;108.80;104.32;;;9.70;96.20;;;;;;5046616;28;20021;-79
2023/01/28 12:03:03;;;;;;;107.10;102.78;;;9.70;96.20;;;;;;5030811;28;20041;-81
2023/01/28 12:05:44;;;;;;;108.60;104.20;;;9.70;96.30;;;;;;5030179;28;20018;-82
2023/01/28 12:08:24;;;;;;;108.15;103.75;;;9.60;96.20;;;;;;5030717;28;20021;-79
2023/01/28 12:11:14;;;;;;;108.40;104.00;;;9.50;96.40;;;;;;5035201;28;20028;-82
2023/01/28 12:14:07;;;;;;;110.40;105.88;;;9.50;96.20;;;;;;5044045;28;20032;-79
2023/01/28 12:16:59;;;;;;;113.53;108.90;;;9.50;96.30;;;;;;5012677;28;20026;-77
2023/01/28 12:19:25;;;;;;;111.60;107.00;;;9.50;96.30;;;;;;5008774;28;20029;-77
2023/01/28 12:21:53;;;;;;;109.35;104.85;;;9.50;96.30;;;;;;5008016;28;20025;-75
2023/01/28 12:24:54;;;;;;;108.93;104.43;;;9.60;96.60;;;;;;5007946;28;20037;-77
2023/01/28 12:27:58;;;;;;;109.20;104.70;;;9.70;96.30;;;;;;5008993;28;20386;-75
2023/01/28 12:30:51;;;;;;;108.25;103.75;;;9.70;96.30;;;;;;5011199;28;20403;-77
2023/01/28 12:33:32;;;;;;;103.38;99.07;;;9.80;96.40;;;;;;5010152;28;20044;-81
2023/01/28 12:36:15;;;;;;;102.50;98.30;;;10.00;96.60;;;;;;5011423;28;20196;-76
2023/01/28 12:38:40;;;;;;;104.82;100.53;;;10.10;96.50;;;;;;5008606;28;20033;-77
2023/01/28 12:41:15;;;;;;;106.20;101.90;;;10.10;96.40;;;;;;5007917;28;20036;-77
2023/01/28 12:43:55;;;;;;;106.20;101.90;;;10.10;96.30;;;;;;5010891;28;20029;-76
2023/01/28 12:46:21;;;;;;;104.93;100.63;;;10.00;96.20;;;;;;5013692;28;20029;-77
2023/01/28 12:48:59;;;;;;;99.25;95.22;;;10.00;96.40;;;;;;5012748;28;20102;-75
2023/01/28 12:51:30;;;;;;;101.28;97.18;;;10.00;96.50;;;;;;5011701;28;20367;-78
2023/01/28 12:54:17;;;;;;;98.80;94.80;;;10.10;96.50;;;;;;5012781;28;20030;-75
2023/01/28 12:56:49;;;;;;;102.60;98.40;;;10.20;96.50;;;;;;5011376;28;20513;-76
2023/01/28 12:59:24;;;;;;;97.03;93.13;;;10.30;96.50;;;;;;5012728;28;20033;-76
2023/01/28 13:02:02;;;;;;;95.28;91.38;;;10.40;96.50;;;;;;5011960;28;20022;-77
2023/01/28 13:04:47;;;;;;;98.20;94.22;;;10.50;96.40;;;;;;5012581;28;20022;-75
2023/01/28 13:07:33;;;;;;;95.95;92.05;;;10.50;96.40;;;;;;5011474;28;20044;-73
2023/01/28 13:10:14;;;;;;;94.30;90.50;;;10.50;96.40;;;;;;5010953;28;20026;-74
2023/01/28 13:12:41;;;;;;;97.43;93.53;;;10.50;96.40;;;;;;5010981;28;20422;-75
2023/01/28 13:15:15;;;;;;;93.53;89.72;;;10.40;96.30;;;;;;5044556;28;20032;-75
2023/01/28 13:17:57;;;;;;;89.63;86.03;;;10.40;96.40;;;;;;5053516;28;20025;-81
2023/01/28 13:20:45;;;;;;;93.32;89.63;;;10.40;96.40;;;;;;5050479;28;20068;-75
2023/01/28 13:23:36;;;;;;;89.97;86.38;;;10.30;96.40;;;;;;5038864;28;20028;-82
2023/01/28 13:26:26;;;;;;;94.05;90.25;;;10.20;96.30;;;;;;5052176;28;20017;-79
2023/01/28 13:28:53;;;;;;;95.65;91.75;;;10.10;96.40;;;;;;5038437;28;20071;-81